This is the latest recevied weather packets stored in our database for station/object EA4BCR. If no packets are shown the sender has not sent any weather packets the latest 10 day(s).
| Time | Temp. | Humidity | Pressure | Rain* | Wind** | Luminosity | Snow |
|---|---|---|---|---|---|---|---|
| 1777648612 | 23.89° C | 42% | 1014.5 hPa | - | - | - | - |
| 1777648012 | 23.33° C | 45% | 1014.9 hPa | - | - | - | - |
| 1777647413 | 23.33° C | 45% | 1015.2 hPa | - | - | - | - |
| 1777646812 | 23.33° C | 45% | 1015.3 hPa | - | - | - | - |
| 1777646212 | 23.33° C | 47% | 1015.2 hPa | - | - | - | - |
| 1777645612 | 22.78° C | 48% | 1015.5 hPa | - | - | - | - |
| 1777645012 | 23.33° C | 48% | 1015.3 hPa | - | - | - | - |
| 1777644412 | 22.22° C | 55% | 1015.9 hPa | - | - | - | - |
| 1777643812 | 21.67° C | 58% | 1016.1 hPa | - | - | - | - |
| 1777643212 | 22.22° C | 69% | 1016.2 hPa | - | - | - | - |
| 1777642612 | 21.11° C | 73% | 1016.8 hPa | - | - | - | - |
| 1777642012 | 21.11° C | 65% | 1016.8 hPa | - | - | - | - |
| 1777641412 | 21.67° C | 51% | 1016.4 hPa | - | - | - | - |
| 1777640812 | 21.67° C | 50% | 1016.6 hPa | - | - | - | - |
| 1777640212 | 22.78° C | 46% | 1016.1 hPa | - | - | - | - |
| 1777639612 | 22.78° C | 47% | 1016 hPa | - | - | - | - |
| 1777639012 | 21.67° C | 48% | 1016.6 hPa | - | - | - | - |
| 1777638412 | 22.22° C | 49% | 1016.4 hPa | - | - | - | - |
| 1777637812 | 21.67° C | 47% | 1016.4 hPa | - | - | - | - |
| 1777637212 | 21.67° C | 49% | 1016.5 hPa | - | - | - | - |
| 1777636612 | 21.67° C | 48% | 1016.6 hPa | - | - | - | - |
| 1777636012 | 23.33° C | 47% | 1015.9 hPa | - | - | - | - |
| 1777635412 | 23.33° C | 48% | 1016.1 hPa | - | - | - | - |
| 1777634812 | 22.78° C | 46% | 1016.3 hPa | - | - | - | - |
| 1777634212 | 22.78° C | 46% | 1016.4 hPa | - | - | - | - |
* Rain since midnight (hover to see other rain measurements)
** Current wind speed in m/s (hover to see current wind gust speed)